Messwerte Toamasina

Temperatur

Temperatur
°C
1594371600 12.00 12.00 24
1594375200 13.00 13.00 25
1594378800 14.00 14.00 26
1594382400 15.00 15.00 26
1594386000 16.00 16.00 26
1594389600 17.00 17.00 25
1594393200 18.00 18.00 23
1594396800 19.00 19.00 23
1594400400 20.00 20.00 23
1594404000 21.00 21.00 24
1594407600 22.00 22.00 24
1594411200 23.00 23.00 23
1594414800 0.00 0.00 22
1594418400 1.00 1.00
1594422000 2.00 2.00
1594425600 3.00 3.00 20
1594429200 4.00 4.00
1594432800 5.00 5.00
1594436400 6.00 6.00 22
1594440000 7.00 7.00 22
1594443600 8.00 8.00 23
1594447200 9.00 9.00 24
1594450800 10.00 10.00 26
1594454400 11.00 11.00 26

Aktuellste Messwerte

Wettercharakter
Wetter: freundlich
Temperatur
26 °C
Feuchtigkeit
65 %
Wind
20 km/hWindrichtung: Südost
Luftdruck
1022 hPa
Messzeit: 11. Juli 2020, 11.00Datenquelle: METAR

Weitere Messstationen in der Nähe

Messstation Temperatur Entfernung
Antananarivo 19 °C 216 km
Mahajanga 30 °C 423 km

Wind

Windrichtung Böen Mittelwind
° km/h km/h
1594371600 12.00 11.00 - 12.00 200° 20
1594375200 13.00 12.00 - 13.00 200° 20
1594378800 14.00 13.00 - 14.00 160° 15
1594382400 15.00 14.00 - 15.00 160° 15
1594386000 16.00 15.00 - 16.00 160° 15
1594389600 17.00 16.00 - 17.00 140° 15
1594393200 18.00 17.00 - 18.00 140° 15
1594396800 19.00 18.00 - 19.00 140° 15
1594400400 20.00 19.00 - 20.00 140° 15
1594404000 21.00 20.00 - 21.00 140° 20
1594407600 22.00 21.00 - 22.00 120° 20
1594411200 23.00 22.00 - 23.00 120° 25
1594414800 0.00 23.00 - 0.00 160° 15
1594418400 1.00 0.00 - 1.00
1594422000 2.00 1.00 - 2.00
1594425600 3.00 2.00 - 3.00 240° 5
1594429200 4.00 3.00 - 4.00
1594432800 5.00 4.00 - 5.00
1594436400 6.00 5.00 - 6.00 120° 20
1594440000 7.00 6.00 - 7.00 140° 10
1594443600 8.00 7.00 - 8.00 220° 10
1594447200 9.00 8.00 - 9.00 130° 10
1594450800 10.00 9.00 - 10.00 120° 15
1594454400 11.00 10.00 - 11.00 120° 20

Ihre Wetterstation

Fehlt Ihre Wetterstation auf unserem Portal?

Schreiben Sie an network@meteonews.ch

Klima

Wann ist es am wärmsten? Wann regnet es am wenigsten? Unsere Klimadaten geben Auskunft.